Terminal Aerodrome Forecast
Issued by NWS

Home | Current Version | Previous Version | Text Only | Print | Product List | Glossary On
Versions: 1 2 3 4 5 6 7 8 9 10 11 12 13 14 15 16 17 18 19 20 21 22 23 24 25 26 27 28
000
FTAK31 PAFA 041138
TAFAOM
TAF
PAOM 041138Z 0412/0512 04005KT P6SM SKC
     FM041800 09013KT P6SM SCT180
     FM050300 09018KT P6SM BKN180=

USA.gov is the U.S. government's official web portal to all federal, state and local government web resources and services.